Time,TemperatureF,DewpointF,PressureIn,WindDirection,WindDirectionDegrees,WindSpeedMPH,WindSpeedGustMPH,Humidity,HourlyPrecipIn,Conditions,Clouds,dailyrainin,SolarRadiationWatts/m^2,SoftwareType,DateUTC
2013-08-24 00:04:00,67.0,66.0,-100.00,WNW,291,3.0,5.0,97,0.00,,,0.05,0.000000,,2013-08-24 04:04:00,
2013-08-24 00:44:00,67.0,66.0,-100.00,WNW,302,4.0,5.0,98,0.00,,,0.05,0.000000,,2013-08-24 04:44:00,
2013-08-24 00:54:00,67.0,66.0,-100.00,WNW,302,4.0,5.0,98,0.00,,,0.05,0.000000,,2013-08-24 04:54:00,
2013-08-24 01:03:00,67.0,66.0,-100.00,WNW,302,4.0,5.0,98,0.00,,,0.05,0.000000,,2013-08-24 05:03:00,
2013-08-24 01:43:00,67.0,67.0,-100.00,WNW,303,4.0,5.0,99,0.00,,,0.05,0.000000,,2013-08-24 05:43:00,
2013-08-24 01:53:00,67.0,67.0,-100.00,WNW,303,4.0,5.0,99,0.00,,,0.05,0.000000,,2013-08-24 05:53:00,
2013-08-24 02:02:00,67.0,67.0,-100.00,WNW,303,4.0,5.0,99,0.00,,,0.05,0.000000,,2013-08-24 06:02:00,
2013-08-24 02:42:00,67.0,66.0,-100.00,WNW,293,3.0,5.0,96,0.00,,,0.05,0.000000,,2013-08-24 06:42:00,
2013-08-24 02:52:00,67.0,66.0,-100.00,WNW,293,3.0,5.0,96,0.00,,,0.05,0.000000,,2013-08-24 06:52:00,
2013-08-24 03:02:00,67.0,66.0,-100.00,WNW,293,3.0,5.0,96,0.00,,,0.05,0.000000,,2013-08-24 07:02:00,
2013-08-24 03:43:00,67.0,66.0,-100.00,NW,321,2.0,5.0,97,0.00,,,0.05,0.000000,,2013-08-24 07:43:00,
2013-08-24 03:53:00,67.0,66.0,-100.00,NW,321,2.0,5.0,97,0.00,,,0.05,0.000000,,2013-08-24 07:53:00,
2013-08-24 04:02:00,67.0,66.0,-100.00,NW,321,2.0,5.0,97,0.00,,,0.05,0.000000,,2013-08-24 08:02:00,
2013-08-24 04:42:00,67.0,65.0,-100.00,ESE,106,3.0,8.0,92,0.00,,,0.05,0.000000,,2013-08-24 08:42:00,
2013-08-24 04:52:00,67.0,65.0,-100.00,ESE,106,3.0,8.0,92,0.00,,,0.05,0.000000,,2013-08-24 08:52:00,
2013-08-24 05:01:00,67.0,65.0,-100.00,ESE,106,3.0,8.0,92,0.00,,,0.05,0.000000,,2013-08-24 09:01:00,
2013-08-24 05:44:00,66.0,65.0,-100.00,ESE,102,2.0,9.0,97,0.00,,,0.05,0.000000,,2013-08-24 09:44:00,
2013-08-24 05:53:00,66.0,65.0,-100.00,ESE,102,2.0,9.0,97,0.00,,,0.05,0.000000,,2013-08-24 09:53:00,
2013-08-24 06:04:00,66.0,65.0,-100.00,ESE,102,2.0,9.0,97,0.00,,,0.05,0.000000,,2013-08-24 10:04:00,
2013-08-24 06:42:00,65.0,65.0,-100.00,ESE,112,2.0,6.0,100,0.00,,,0.05,0.000000,,2013-08-24 10:42:00,
2013-08-24 06:53:00,65.0,65.0,-100.00,ESE,112,2.0,6.0,100,0.00,,,0.05,0.000000,,2013-08-24 10:53:00,
2013-08-24 07:03:00,65.0,65.0,-100.00,ESE,112,2.0,6.0,100,0.00,,,0.05,0.000000,,2013-08-24 11:03:00,
2013-08-24 07:42:00,65.0,65.0,-100.00,ESE,122,2.0,6.0,100,0.00,,,0.05,0.000000,,2013-08-24 11:42:00,
2013-08-24 07:52:00,65.0,65.0,-100.00,ESE,122,2.0,6.0,100,0.00,,,0.05,0.000000,,2013-08-24 11:52:00,
2013-08-24 08:02:00,65.0,65.0,-100.00,ESE,122,2.0,6.0,100,0.00,,,0.05,0.000000,,2013-08-24 12:02:00,
2013-08-24 08:42:00,65.0,65.0,-100.00,ESE,121,2.0,6.0,100,0.00,,,0.05,7.000000,,2013-08-24 12:42:00,
2013-08-24 08:52:00,65.0,65.0,-100.00,ESE,121,2.0,6.0,100,0.00,,,0.05,7.000000,,2013-08-24 12:52:00,
2013-08-24 09:02:00,65.0,65.0,-100.00,ESE,121,2.0,6.0,100,0.00,,,0.05,7.000000,,2013-08-24 13:02:00,
2013-08-24 09:42:00,65.0,65.0,-100.00,ESE,103,3.0,7.0,100,0.00,,,0.05,55.000000,,2013-08-24 13:42:00,
2013-08-24 09:52:00,65.0,65.0,-100.00,ESE,103,3.0,7.0,100,0.00,,,0.05,55.000000,,2013-08-24 13:52:00,
2013-08-24 10:02:00,65.0,65.0,-100.00,ESE,103,3.0,7.0,100,0.00,,,0.05,55.000000,,2013-08-24 14:02:00,
2013-08-24 10:42:00,68.0,66.0,-100.00,East,100,3.0,7.0,94,0.00,,,0.05,184.000000,,2013-08-24 14:42:00,
2013-08-24 10:52:00,68.0,66.0,-100.00,East,100,3.0,7.0,94,0.00,,,0.05,184.000000,,2013-08-24 14:52:00,
2013-08-24 11:01:00,68.0,66.0,-100.00,East,100,3.0,7.0,94,0.00,,,0.05,184.000000,,2013-08-24 15:01:00,
2013-08-24 11:45:00,72.0,68.0,-100.00,ESE,109,3.0,8.0,88,0.00,,,0.05,295.000000,,2013-08-24 15:45:00,
2013-08-24 11:54:00,72.0,68.0,-100.00,ESE,109,3.0,8.0,88,0.00,,,0.05,295.000000,,2013-08-24 15:54:00,
2013-08-24 12:04:00,72.0,68.0,-100.00,ESE,109,3.0,8.0,88,0.00,,,0.05,295.000000,,2013-08-24 16:04:00,
2013-08-24 12:42:00,77.0,71.0,-100.00,SE,125,4.0,7.0,82,0.00,,,0.05,493.000000,,2013-08-24 16:42:00,
2013-08-24 12:53:00,77.0,71.0,-100.00,SE,125,4.0,7.0,82,0.00,,,0.05,493.000000,,2013-08-24 16:53:00,
2013-08-24 13:02:00,77.0,71.0,-100.00,SE,125,4.0,7.0,82,0.00,,,0.05,493.000000,,2013-08-24 17:02:00,
2013-08-24 13:42:00,77.0,69.0,-100.00,SE,131,3.0,7.0,77,0.00,,,0.05,465.000000,,2013-08-24 17:42:00,
2013-08-24 13:52:00,77.0,69.0,-100.00,SE,131,3.0,7.0,77,0.00,,,0.05,465.000000,,2013-08-24 17:52:00,
2013-08-24 14:03:00,77.0,69.0,-100.00,SE,131,3.0,7.0,77,0.00,,,0.05,465.000000,,2013-08-24 18:03:00,
2013-08-24 14:42:00,80.0,68.0,-100.00,SE,126,3.0,10.0,66,0.00,,,0.05,788.000000,,2013-08-24 18:42:00,
2013-08-24 14:53:00,80.0,68.0,-100.00,SE,126,3.0,10.0,66,0.00,,,0.05,788.000000,,2013-08-24 18:53:00,
2013-08-24 15:01:00,80.0,68.0,-100.00,SE,126,3.0,10.0,66,0.00,,,0.05,788.000000,,2013-08-24 19:01:00,
2013-08-24 15:42:00,80.0,66.0,-100.00,ESE,112,4.0,12.0,63,0.00,,,0.05,819.000000,,2013-08-24 19:42:00,
2013-08-24 15:52:00,80.0,66.0,-100.00,ESE,112,4.0,12.0,63,0.00,,,0.05,819.000000,,2013-08-24 19:52:00,
2013-08-24 16:02:00,80.0,66.0,-100.00,ESE,112,4.0,12.0,63,0.00,,,0.05,819.000000,,2013-08-24 20:02:00,
2013-08-24 16:42:00,80.0,65.0,-100.00,SE,125,4.0,9.0,60,0.00,,,0.05,843.000000,,2013-08-24 20:42:00,
2013-08-24 16:53:00,80.0,65.0,-100.00,SE,125,4.0,9.0,60,0.00,,,0.05,843.000000,,2013-08-24 20:53:00,
2013-08-24 17:02:00,80.0,65.0,-100.00,SE,125,4.0,9.0,60,0.00,,,0.05,843.000000,,2013-08-24 21:02:00,
2013-08-24 17:43:00,77.0,63.0,-100.00,ESE,103,3.0,9.0,61,0.00,,,0.05,643.000000,,2013-08-24 21:43:00,
2013-08-24 17:55:00,77.0,63.0,-100.00,ESE,103,3.0,9.0,61,0.00,,,0.05,643.000000,,2013-08-24 21:55:00,
2013-08-24 18:04:00,77.0,63.0,-100.00,ESE,103,3.0,9.0,61,0.00,,,0.05,643.000000,,2013-08-24 22:04:00,
2013-08-24 18:43:00,74.0,64.0,-100.00,East,90,2.0,8.0,71,0.00,,,0.05,292.000000,,2013-08-24 22:43:00,
2013-08-24 18:53:00,74.0,64.0,-100.00,East,90,2.0,8.0,71,0.00,,,0.05,292.000000,,2013-08-24 22:53:00,
2013-08-24 19:03:00,74.0,64.0,-100.00,East,90,2.0,8.0,71,0.00,,,0.05,292.000000,,2013-08-24 23:03:00,
2013-08-24 19:43:00,72.0,64.0,-100.00,East,79,2.0,7.0,76,0.00,,,0.00,75.000000,,2013-08-24 23:43:00,
2013-08-24 19:53:00,72.0,64.0,-100.00,East,79,2.0,7.0,76,0.00,,,0.00,75.000000,,2013-08-24 23:53:00,
2013-08-24 20:02:00,72.0,64.0,-100.00,East,79,2.0,7.0,76,0.00,,,0.00,75.000000,,2013-08-25 00:02:00,
2013-08-24 20:42:00,70.0,62.0,-100.00,ESE,103,3.0,6.0,75,0.00,,,0.00,27.000000,,2013-08-25 00:42:00,
2013-08-24 20:52:00,70.0,62.0,-100.00,ESE,103,3.0,6.0,75,0.00,,,0.00,27.000000,,2013-08-25 00:52:00,
2013-08-24 21:01:00,70.0,62.0,-100.00,ESE,103,3.0,6.0,75,0.00,,,0.00,27.000000,,2013-08-25 01:01:00,
2013-08-24 21:43:00,68.0,61.0,-100.00,East,85,2.0,6.0,79,0.00,,,0.00,0.000000,,2013-08-25 01:43:00,
2013-08-24 21:52:00,68.0,61.0,-100.00,East,85,2.0,6.0,79,0.00,,,0.00,0.000000,,2013-08-25 01:52:00,
2013-08-24 22:02:00,68.0,61.0,-100.00,East,85,2.0,6.0,79,0.00,,,0.00,0.000000,,2013-08-25 02:02:00,
2013-08-24 22:42:00,68.0,61.0,-100.00,East,97,3.0,7.0,77,0.00,,,0.00,0.000000,,2013-08-25 02:42:00,
2013-08-24 22:52:00,68.0,61.0,-100.00,East,97,3.0,7.0,77,0.00,,,0.00,0.000000,,2013-08-25 02:52:00,
2013-08-24 23:02:00,68.0,61.0,-100.00,East,97,3.0,7.0,77,0.00,,,0.00,0.000000,,2013-08-25 03:02:00,
2013-08-24 23:44:00,67.0,60.0,-100.00,East,96,2.0,7.0,79,0.00,,,0.00,0.000000,,2013-08-25 03:44:00,
2013-08-24 23:54:00,67.0,60.0,-100.00,East,96,2.0,7.0,79,0.00,,,0.00,0.000000,,2013-08-25 03:54:00,